createdAt,value
2023-01-18T00:04:09.389Z,99.96
2023-01-18T00:09:11.150Z,99.34
2023-01-18T00:14:12.883Z,99.33
2023-01-18T00:19:14.667Z,99.21
2023-01-18T00:24:16.301Z,99.31
2023-01-18T00:29:18.031Z,99.10
2023-01-18T00:34:19.771Z,99.72
2023-01-18T00:39:21.726Z,99.88
2023-01-18T00:44:23.321Z,99.91
2023-01-18T00:49:25.139Z,100.00
2023-01-18T00:54:26.746Z,100.00
2023-01-18T00:59:28.390Z,100.00
2023-01-18T01:04:49.061Z,100.00
2023-01-18T01:09:50.859Z,100.00
2023-01-18T01:15:11.295Z,100.00
2023-01-18T01:20:31.775Z,100.00
2023-01-18T01:25:54.737Z,100.00
2023-01-18T01:31:00.896Z,100.00
2023-01-18T01:36:05.951Z,100.00
2023-01-18T01:41:16.386Z,100.00
2023-01-18T01:46:56.146Z,100.00
2023-01-18T01:52:08.434Z,100.00
2023-01-18T01:57:18.238Z,100.00
2023-01-18T02:02:20.274Z,100.00
2023-01-18T02:07:23.942Z,100.00
2023-01-18T02:12:27.120Z,100.00
2023-01-18T02:17:32.812Z,100.00
2023-01-18T02:22:59.622Z,100.00
2023-01-18T02:28:13.635Z,100.00
2023-01-18T02:33:27.687Z,100.00
2023-01-18T02:38:44.636Z,100.00
2023-01-18T02:44:10.129Z,100.00
2023-01-18T02:49:20.916Z,100.00
2023-01-18T02:54:24.334Z,100.00
2023-01-18T02:59:39.966Z,100.00
2023-01-18T03:04:57.064Z,100.00
2023-01-18T03:10:03.037Z,100.00
2023-01-18T03:15:14.160Z,100.00
2023-01-18T03:20:21.042Z,100.00
2023-01-18T03:25:28.351Z,100.00
2023-01-18T03:30:52.143Z,100.00
2023-01-18T03:35:56.170Z,100.00
2023-01-18T03:41:00.721Z,100.00
2023-01-18T03:46:03.081Z,100.00
2023-01-18T03:51:22.669Z,100.00
2023-01-18T03:57:28.377Z,100.00
2023-01-18T04:02:30.012Z,100.00
2023-01-18T04:07:32.391Z,100.00
2023-01-18T04:12:35.047Z,100.00
2023-01-18T04:17:36.906Z,100.00
2023-01-18T04:22:38.485Z,100.00
2023-01-18T04:27:40.140Z,100.00
2023-01-18T04:32:42.878Z,100.00
2023-01-18T04:37:44.536Z,100.00
2023-01-18T04:42:52.337Z,100.00
2023-01-18T04:47:53.991Z,100.00
2023-01-18T04:52:56.071Z,100.00
2023-01-18T04:57:58.350Z,100.00
2023-01-18T05:03:00.429Z,100.00
2023-01-18T05:08:02.261Z,100.00
2023-01-18T05:13:03.892Z,100.00
2023-01-18T05:18:07.119Z,99.53
2023-01-18T05:23:11.161Z,99.77
2023-01-18T05:28:12.890Z,99.67
2023-01-18T05:33:14.642Z,99.44
2023-01-18T05:38:16.875Z,99.69
2023-01-18T05:43:23.297Z,99.37
2023-01-18T05:48:25.822Z,99.04
2023-01-18T05:53:27.429Z,99.47
2023-01-18T05:58:29.566Z,99.33
2023-01-18T06:03:31.169Z,99.43
2023-01-18T06:08:33.660Z,99.26
2023-01-18T06:13:35.595Z,99.53
2023-01-18T06:18:38.435Z,99.66
2023-01-18T06:23:40.263Z,99.83
2023-01-18T06:28:41.908Z,99.38
2023-01-18T06:33:43.518Z,99.63
2023-01-18T06:38:45.121Z,99.64
2023-01-18T06:43:46.803Z,99.68
2023-01-18T06:48:48.641Z,99.83
2023-01-18T06:53:50.246Z,99.39
2023-01-18T06:58:52.022Z,99.58
2023-01-18T07:03:53.828Z,98.99
2023-01-18T07:08:55.459Z,98.85
2023-01-18T07:13:57.267Z,98.87
2023-01-18T07:19:01.730Z,98.85
2023-01-18T07:24:03.413Z,99.32
2023-01-18T07:29:05.085Z,99.11
2023-01-18T07:34:07.222Z,99.39
2023-01-18T07:39:10.122Z,99.24
2023-01-18T07:44:11.971Z,99.19
2023-01-18T07:49:13.602Z,99.79
2023-01-18T07:54:17.092Z,99.64
2023-01-18T07:59:18.730Z,99.70
2023-01-18T08:04:20.524Z,99.88
2023-01-18T08:09:22.314Z,99.78
2023-01-18T08:14:23.918Z,100.00
2023-01-18T08:19:25.574Z,99.98
2023-01-18T08:24:29.253Z,99.93
2023-01-18T08:29:30.952Z,99.70
2023-01-18T08:34:32.574Z,100.00
2023-01-18T08:39:34.160Z,100.00
2023-01-18T08:44:35.831Z,100.00
2023-01-18T08:49:37.485Z,100.00
2023-01-18T08:54:39.304Z,100.00
2023-01-18T08:59:40.907Z,100.00
2023-01-18T09:04:44.072Z,100.00
2023-01-18T09:09:45.733Z,100.00
2023-01-18T09:14:47.399Z,100.00
2023-01-18T09:19:48.986Z,100.00
2023-01-18T09:24:51.298Z,100.00
2023-01-18T09:29:53.028Z,100.00
2023-01-18T09:34:54.904Z,99.70
2023-01-18T09:39:56.594Z,99.20
2023-01-18T09:45:00.889Z,99.38
2023-01-18T09:50:14.770Z,98.66
2023-01-18T09:55:33.244Z,98.04
2023-01-18T10:00:40.074Z,96.96
2023-01-18T10:05:53.038Z,95.16
2023-01-18T10:11:11.120Z,94.74
2023-01-18T10:16:14.951Z,94.54
2023-01-18T10:21:22.407Z,94.50
2023-01-18T10:26:30.695Z,94.10
2023-01-18T10:32:00.622Z,94.43
2023-01-18T10:37:14.606Z,93.64
2023-01-18T10:42:21.891Z,93.98
2023-01-18T10:47:23.727Z,94.17
2023-01-18T10:52:28.371Z,94.33
2023-01-18T10:57:35.034Z,93.98
2023-01-18T11:02:38.479Z,93.22
2023-01-18T11:07:40.559Z,93.32
2023-01-18T11:12:48.027Z,93.09
2023-01-18T11:18:00.271Z,92.98
2023-01-18T11:23:03.808Z,91.50
2023-01-18T11:28:14.085Z,90.42
2023-01-18T11:33:21.704Z,91.29
2023-01-18T11:38:28.531Z,90.83
2023-01-18T11:43:34.063Z,89.88
2023-01-18T11:48:48.588Z,89.25
2023-01-18T11:54:06.926Z,88.65
2023-01-18T11:59:25.528Z,87.79
2023-01-18T12:04:39.967Z,86.67
2023-01-18T12:09:57.967Z,85.39
2023-01-18T12:15:05.633Z,85.85
2023-01-18T12:20:37.989Z,84.26
2023-01-18T12:26:11.914Z,84.98
2023-01-18T12:31:25.127Z,83.33
2023-01-18T12:36:32.743Z,83.25
2023-01-18T12:41:37.886Z,82.47
2023-01-18T12:47:06.081Z,81.10
2023-01-18T12:52:18.949Z,80.31
2023-01-18T12:57:23.282Z,80.50
2023-01-18T13:02:36.785Z,79.79
2023-01-18T13:07:41.933Z,79.86
2023-01-18T13:12:44.876Z,80.02
2023-01-18T13:17:57.894Z,80.97
2023-01-18T13:23:07.790Z,81.40
2023-01-18T13:28:25.143Z,81.29
2023-01-18T13:33:30.680Z,81.37
2023-01-18T13:38:41.563Z,82.08
2023-01-18T13:43:43.639Z,81.15
2023-01-18T13:49:02.498Z,81.48
2023-01-18T13:54:04.310Z,82.57
2023-01-18T13:59:12.168Z,83.04
2023-01-18T14:04:22.693Z,83.10
2023-01-18T14:09:46.649Z,83.63
2023-01-18T14:14:54.796Z,83.84
2023-01-18T14:20:29.239Z,83.59
2023-01-18T14:25:51.815Z,83.10
2023-01-18T14:30:58.560Z,83.17
2023-01-18T14:36:01.931Z,82.88
2023-01-18T14:41:06.779Z,82.77
2023-01-18T14:46:16.811Z,82.38
2023-01-18T14:51:24.177Z,82.65
2023-01-18T14:56:31.972Z,82.99
2023-01-18T15:01:37.169Z,82.92
2023-01-18T15:07:04.724Z,82.52
2023-01-18T15:12:10.722Z,82.59
2023-01-18T15:17:21.666Z,82.85
2023-01-18T15:22:32.437Z,82.99
2023-01-18T15:27:34.139Z,83.11
2023-01-18T15:32:36.553Z,83.84
2023-01-18T15:37:38.330Z,84.91
2023-01-18T15:42:47.017Z,86.25
2023-01-18T15:47:51.929Z,87.03
2023-01-18T15:53:06.245Z,87.49
2023-01-18T15:58:18.858Z,87.79
2023-01-18T16:03:22.598Z,87.92
2023-01-18T16:08:24.929Z,88.25
2023-01-18T16:13:26.512Z,88.56
2023-01-18T16:18:28.174Z,88.80
2023-01-18T16:23:30.073Z,89.04
2023-01-18T16:28:31.804Z,89.00
2023-01-18T16:33:34.233Z,88.84
2023-01-18T16:38:36.101Z,89.03
2023-01-18T16:43:37.840Z,89.37
2023-01-18T16:48:39.535Z,89.45
2023-01-18T16:53:41.503Z,89.68
2023-01-18T16:58:43.737Z,90.10
2023-01-18T17:03:45.423Z,90.40
2023-01-18T17:08:47.599Z,89.83
2023-01-18T17:13:50.238Z,90.51
2023-01-18T17:18:51.944Z,91.10
2023-01-18T17:23:53.624Z,93.05
2023-01-18T17:28:55.246Z,92.32
2023-01-18T17:33:57.075Z,94.93
2023-01-18T17:38:58.738Z,94.50
2023-01-18T17:44:00.368Z,93.31
2023-01-18T17:49:02.774Z,93.62
2023-01-18T17:54:10.251Z,93.11
2023-01-18T17:59:15.843Z,94.27
2023-01-18T18:04:17.523Z,94.23
2023-01-18T18:09:19.208Z,93.77
2023-01-18T18:14:20.959Z,95.01
2023-01-18T18:19:22.619Z,95.16
2023-01-18T18:24:24.624Z,96.23
2023-01-18T18:29:26.309Z,94.93
2023-01-18T18:34:30.098Z,94.68
2023-01-18T18:39:32.938Z,94.21
2023-01-18T18:44:34.566Z,93.86
2023-01-18T18:49:36.173Z,94.41
2023-01-18T18:54:37.940Z,94.34
2023-01-18T18:59:39.608Z,93.96
2023-01-18T19:04:41.381Z,94.12
2023-01-18T19:09:43.254Z,94.57
2023-01-18T19:14:44.991Z,94.63
2023-01-18T19:19:46.615Z,94.35
2023-01-18T19:24:48.749Z,94.57
2023-01-18T19:29:52.635Z,94.73
2023-01-18T19:34:54.749Z,94.83
2023-01-18T19:39:56.614Z,94.69
2023-01-18T19:44:59.428Z,94.68
2023-01-18T19:50:03.103Z,94.97
2023-01-18T19:55:05.370Z,94.98
2023-01-18T20:00:08.392Z,96.60
2023-01-18T20:05:15.569Z,96.26
2023-01-18T20:10:20.162Z,98.06
2023-01-18T20:15:23.045Z,97.83
2023-01-18T20:20:32.558Z,97.70
2023-01-18T20:25:34.589Z,99.31
2023-01-18T20:30:36.484Z,100.00
2023-01-18T20:35:38.260Z,100.00
2023-01-18T20:40:40.437Z,98.95
2023-01-18T20:45:42.127Z,98.24
2023-01-18T20:50:43.818Z,97.59
2023-01-18T20:55:45.806Z,97.15
2023-01-18T21:00:47.544Z,97.59
2023-01-18T21:05:49.281Z,97.10
2023-01-18T21:10:51.479Z,97.95
2023-01-18T21:15:58.378Z,98.70
2023-01-18T21:21:00.448Z,99.58
2023-01-18T21:26:02.240Z,100.00
2023-01-18T21:31:05.129Z,100.00
2023-01-18T21:36:11.482Z,100.00
2023-01-18T21:41:31.651Z,100.00
2023-01-18T21:46:33.554Z,99.66
2023-01-18T21:51:53.595Z,100.00
2023-01-18T21:56:55.515Z,99.84
2023-01-18T22:01:57.232Z,99.60
2023-01-18T22:06:59.450Z,100.00
2023-01-18T22:12:01.233Z,100.00
2023-01-18T22:17:03.034Z,100.00
2023-01-18T22:22:04.835Z,99.95
2023-01-18T22:27:08.063Z,99.85
2023-01-18T22:32:09.706Z,99.66
2023-01-18T22:37:11.313Z,100.00
2023-01-18T22:42:13.119Z,100.00
2023-01-18T22:47:14.779Z,100.00
2023-01-18T22:52:16.658Z,100.00
2023-01-18T22:57:18.315Z,100.00
2023-01-18T23:02:20.207Z,100.00
2023-01-18T23:07:21.904Z,100.00
2023-01-18T23:12:23.493Z,99.20
2023-01-18T23:17:40.310Z,97.50
2023-01-18T23:22:41.972Z,96.01
2023-01-18T23:27:43.684Z,94.45
2023-01-18T23:32:45.520Z,93.91
2023-01-18T23:37:47.161Z,93.08
2023-01-18T23:43:07.456Z,90.03
2023-01-18T23:48:38.363Z,86.99
2023-01-18T23:53:58.471Z,86.94
2023-01-18T23:59:00.448Z,85.93
